sensor_id;sensor_type;location;lat;lon;timestamp;temperature;humidity
10089;DHT22;51898;49.864;8.550;2022-12-18T00:02:29;-7.90;99.90
10089;DHT22;51898;49.864;8.550;2022-12-18T00:05:31;-7.90;99.90
10089;DHT22;51898;49.864;8.550;2022-12-18T00:08:32;-7.90;99.90
10089;DHT22;51898;49.864;8.550;2022-12-18T00:11:35;-8.00;99.90
10089;DHT22;51898;49.864;8.550;2022-12-18T00:14:36;-8.10;99.90
10089;DHT22;51898;49.864;8.550;2022-12-18T00:17:42;-8.10;99.90
10089;DHT22;51898;49.864;8.550;2022-12-18T00:20:43;-8.10;99.90
10089;DHT22;51898;49.864;8.550;2022-12-18T00:23:46;-8.10;99.90
10089;DHT22;51898;49.864;8.550;2022-12-18T00:26:48;-8.20;99.90
10089;DHT22;51898;49.864;8.550;2022-12-18T00:29:50;-8.30;99.90
10089;DHT22;51898;49.864;8.550;2022-12-18T00:32:52;-8.30;99.90
10089;DHT22;51898;49.864;8.550;2022-12-18T00:35:53;-8.30;99.90
10089;DHT22;51898;49.864;8.550;2022-12-18T00:38:56;-8.30;99.90
10089;DHT22;51898;49.864;8.550;2022-12-18T00:41:58;-8.30;99.90
10089;DHT22;51898;49.864;8.550;2022-12-18T00:45:20;-8.40;99.90
10089;DHT22;51898;49.864;8.550;2022-12-18T00:48:21;-8.50;99.90
10089;DHT22;51898;49.864;8.550;2022-12-18T00:51:24;-8.50;99.90
10089;DHT22;51898;49.864;8.550;2022-12-18T00:54:26;-8.50;99.90
10089;DHT22;51898;49.864;8.550;2022-12-18T00:57:27;-8.50;99.90
10089;DHT22;51898;49.864;8.550;2022-12-18T01:00:29;-8.50;99.90
10089;DHT22;51898;49.864;8.550;2022-12-18T01:03:30;-8.50;99.90
10089;DHT22;51898;49.864;8.550;2022-12-18T01:06:32;-8.50;99.90
10089;DHT22;51898;49.864;8.550;2022-12-18T01:09:34;-8.60;99.90
10089;DHT22;51898;49.864;8.550;2022-12-18T01:12:36;-8.50;99.90
10089;DHT22;51898;49.864;8.550;2022-12-18T01:15:38;-8.50;99.90
10089;DHT22;51898;49.864;8.550;2022-12-18T01:18:40;-8.50;99.90
10089;DHT22;51898;49.864;8.550;2022-12-18T01:21:42;-8.40;99.90
10089;DHT22;51898;49.864;8.550;2022-12-18T01:24:43;-8.40;99.90
10089;DHT22;51898;49.864;8.550;2022-12-18T01:27:45;-8.50;99.90
10089;DHT22;51898;49.864;8.550;2022-12-18T01:30:46;-8.60;99.90
10089;DHT22;51898;49.864;8.550;2022-12-18T01:33:49;-8.60;99.90
10089;DHT22;51898;49.864;8.550;2022-12-18T01:36:51;-8.70;99.90
10089;DHT22;51898;49.864;8.550;2022-12-18T01:39:53;-8.80;99.90
10089;DHT22;51898;49.864;8.550;2022-12-18T01:42:56;-8.70;99.90
10089;DHT22;51898;49.864;8.550;2022-12-18T01:45:59;-8.70;99.90
10089;DHT22;51898;49.864;8.550;2022-12-18T01:49:01;-8.70;99.90
10089;DHT22;51898;49.864;8.550;2022-12-18T01:52:03;-8.70;99.90
10089;DHT22;51898;49.864;8.550;2022-12-18T01:55:06;-8.80;99.90
10089;DHT22;51898;49.864;8.550;2022-12-18T01:58:08;-8.80;99.90
10089;DHT22;51898;49.864;8.550;2022-12-18T02:04:22;-8.90;99.90
10089;DHT22;51898;49.864;8.550;2022-12-18T02:07:32;-8.90;99.90
10089;DHT22;51898;49.864;8.550;2022-12-18T02:10:48;-8.90;99.90
10089;DHT22;51898;49.864;8.550;2022-12-18T02:17:03;-9.00;99.90
10089;DHT22;51898;49.864;8.550;2022-12-18T02:20:21;-9.00;99.90
10089;DHT22;51898;49.864;8.550;2022-12-18T02:26:59;-9.10;99.90
10089;DHT22;51898;49.864;8.550;2022-12-18T02:30:04;-9.10;99.90
10089;DHT22;51898;49.864;8.550;2022-12-18T02:33:07;-9.10;99.90
10089;DHT22;51898;49.864;8.550;2022-12-18T02:36:10;-9.10;99.90
10089;DHT22;51898;49.864;8.550;2022-12-18T02:39:15;-9.10;99.90
10089;DHT22;51898;49.864;8.550;2022-12-18T02:42:17;-9.10;99.90
10089;DHT22;51898;49.864;8.550;2022-12-18T02:45:20;-9.10;99.90
10089;DHT22;51898;49.864;8.550;2022-12-18T02:48:25;-9.10;99.90
10089;DHT22;51898;49.864;8.550;2022-12-18T02:51:40;-9.00;99.90
10089;DHT22;51898;49.864;8.550;2022-12-18T02:58:10;-9.10;99.90
10089;DHT22;51898;49.864;8.550;2022-12-18T03:01:21;-9.20;99.90
10089;DHT22;51898;49.864;8.550;2022-12-18T03:04:30;-9.30;99.90
10089;DHT22;51898;49.864;8.550;2022-12-18T03:07:43;-9.30;99.90
10089;DHT22;51898;49.864;8.550;2022-12-18T03:11:06;-9.30;99.90
10089;DHT22;51898;49.864;8.550;2022-12-18T03:14:10;-9.20;99.90
10089;DHT22;51898;49.864;8.550;2022-12-18T03:17:16;-9.20;99.90
10089;DHT22;51898;49.864;8.550;2022-12-18T03:20:22;-9.10;99.90
10089;DHT22;51898;49.864;8.550;2022-12-18T03:23:29;-9.10;99.90
10089;DHT22;51898;49.864;8.550;2022-12-18T03:26:33;-9.10;99.90
10089;DHT22;51898;49.864;8.550;2022-12-18T03:29:40;-9.10;99.90
10089;DHT22;51898;49.864;8.550;2022-12-18T03:36:21;-9.20;99.90
10089;DHT22;51898;49.864;8.550;2022-12-18T03:39:24;-9.20;99.90
10089;DHT22;51898;49.864;8.550;2022-12-18T03:45:51;-9.20;99.90
10089;DHT22;51898;49.864;8.550;2022-12-18T03:49:14;-9.10;99.90
10089;DHT22;51898;49.864;8.550;2022-12-18T03:52:27;-9.10;99.90
10089;DHT22;51898;49.864;8.550;2022-12-18T03:55:33;-9.10;99.90
10089;DHT22;51898;49.864;8.550;2022-12-18T03:58:37;-9.10;99.90
10089;DHT22;51898;49.864;8.550;2022-12-18T04:01:46;-9.10;99.90
10089;DHT22;51898;49.864;8.550;2022-12-18T04:04:52;-9.00;99.90
10089;DHT22;51898;49.864;8.550;2022-12-18T04:07:55;-9.00;99.90
10089;DHT22;51898;49.864;8.550;2022-12-18T04:10:57;-9.00;99.90
10089;DHT22;51898;49.864;8.550;2022-12-18T04:13:59;-8.90;99.90
10089;DHT22;51898;49.864;8.550;2022-12-18T04:17:06;-8.80;99.90
10089;DHT22;51898;49.864;8.550;2022-12-18T04:20:09;-8.80;99.90
10089;DHT22;51898;49.864;8.550;2022-12-18T04:23:11;-8.90;99.90
10089;DHT22;51898;49.864;8.550;2022-12-18T04:26:13;-9.00;99.90
10089;DHT22;51898;49.864;8.550;2022-12-18T04:29:15;-9.20;99.90
10089;DHT22;51898;49.864;8.550;2022-12-18T04:32:16;-9.20;99.90
10089;DHT22;51898;49.864;8.550;2022-12-18T04:35:18;-9.30;99.90
10089;DHT22;51898;49.864;8.550;2022-12-18T04:38:20;-9.40;99.90
10089;DHT22;51898;49.864;8.550;2022-12-18T04:41:21;-9.40;99.90
10089;DHT22;51898;49.864;8.550;2022-12-18T04:44:23;-9.40;99.90
10089;DHT22;51898;49.864;8.550;2022-12-18T04:47:24;-9.40;99.90
10089;DHT22;51898;49.864;8.550;2022-12-18T04:50:27;-9.40;99.90
10089;DHT22;51898;49.864;8.550;2022-12-18T04:53:28;-9.50;99.90
10089;DHT22;51898;49.864;8.550;2022-12-18T04:56:31;-9.50;99.90
10089;DHT22;51898;49.864;8.550;2022-12-18T04:59:33;-9.50;99.90
10089;DHT22;51898;49.864;8.550;2022-12-18T05:02:35;-9.50;99.90
10089;DHT22;51898;49.864;8.550;2022-12-18T05:05:36;-9.60;99.90
10089;DHT22;51898;49.864;8.550;2022-12-18T05:08:38;-9.70;99.90
10089;DHT22;51898;49.864;8.550;2022-12-18T05:11:40;-9.90;99.90
10089;DHT22;51898;49.864;8.550;2022-12-18T05:14:42;-10.00;99.90
10089;DHT22;51898;49.864;8.550;2022-12-18T05:17:43;-10.00;99.90
10089;DHT22;51898;49.864;8.550;2022-12-18T05:20:45;-10.10;99.90
10089;DHT22;51898;49.864;8.550;2022-12-18T05:23:47;-10.10;99.90
10089;DHT22;51898;49.864;8.550;2022-12-18T05:26:49;-10.10;99.90
10089;DHT22;51898;49.864;8.550;2022-12-18T05:29:51;-10.10;99.90
10089;DHT22;51898;49.864;8.550;2022-12-18T05:32:53;-10.10;99.90
10089;DHT22;51898;49.864;8.550;2022-12-18T05:36:00;-10.00;99.90
10089;DHT22;51898;49.864;8.550;2022-12-18T05:39:02;-10.00;99.90
10089;DHT22;51898;49.864;8.550;2022-12-18T05:42:04;-10.00;99.90
10089;DHT22;51898;49.864;8.550;2022-12-18T05:45:07;-10.10;99.90
10089;DHT22;51898;49.864;8.550;2022-12-18T05:48:09;-10.10;99.90
10089;DHT22;51898;49.864;8.550;2022-12-18T05:51:15;-10.00;99.90
10089;DHT22;51898;49.864;8.550;2022-12-18T05:54:18;-10.00;99.90
10089;DHT22;51898;49.864;8.550;2022-12-18T05:57:19;-10.00;99.90
10089;DHT22;51898;49.864;8.550;2022-12-18T06:00:21;-10.10;99.90
10089;DHT22;51898;49.864;8.550;2022-12-18T06:03:23;-10.10;99.90
10089;DHT22;51898;49.864;8.550;2022-12-18T06:06:32;-10.20;99.90
10089;DHT22;51898;49.864;8.550;2022-12-18T06:09:34;-10.20;99.90
10089;DHT22;51898;49.864;8.550;2022-12-18T06:12:35;-10.20;99.90
10089;DHT22;51898;49.864;8.550;2022-12-18T06:15:37;-10.10;99.90
10089;DHT22;51898;49.864;8.550;2022-12-18T06:18:39;-10.10;99.90
10089;DHT22;51898;49.864;8.550;2022-12-18T06:21:41;-10.10;99.90
10089;DHT22;51898;49.864;8.550;2022-12-18T06:24:42;-10.00;99.90
10089;DHT22;51898;49.864;8.550;2022-12-18T06:27:47;-10.00;99.90
10089;DHT22;51898;49.864;8.550;2022-12-18T06:30:49;-10.00;99.90
10089;DHT22;51898;49.864;8.550;2022-12-18T06:33:51;-10.10;99.90
10089;DHT22;51898;49.864;8.550;2022-12-18T06:36:52;-10.10;99.90
10089;DHT22;51898;49.864;8.550;2022-12-18T06:39:54;-10.10;99.90
10089;DHT22;51898;49.864;8.550;2022-12-18T06:42:57;-10.20;99.90
10089;DHT22;51898;49.864;8.550;2022-12-18T06:46:00;-10.20;99.90
10089;DHT22;51898;49.864;8.550;2022-12-18T06:49:02;-10.30;99.90
10089;DHT22;51898;49.864;8.550;2022-12-18T06:52:04;-10.30;99.90
10089;DHT22;51898;49.864;8.550;2022-12-18T06:55:10;-10.30;99.90
10089;DHT22;51898;49.864;8.550;2022-12-18T06:58:12;-10.30;99.90
10089;DHT22;51898;49.864;8.550;2022-12-18T07:01:13;-10.10;99.90
10089;DHT22;51898;49.864;8.550;2022-12-18T07:04:15;-10.30;99.90
10089;DHT22;51898;49.864;8.550;2022-12-18T07:07:17;-10.40;99.90
10089;DHT22;51898;49.864;8.550;2022-12-18T07:10:19;-10.50;99.90
10089;DHT22;51898;49.864;8.550;2022-12-18T07:13:21;-10.50;99.90
10089;DHT22;51898;49.864;8.550;2022-12-18T07:16:22;-10.60;99.90
10089;DHT22;51898;49.864;8.550;2022-12-18T07:19:26;-10.50;99.90
10089;DHT22;51898;49.864;8.550;2022-12-18T07:22:28;-10.50;99.90
10089;DHT22;51898;49.864;8.550;2022-12-18T07:25:29;-10.50;99.90
10089;DHT22;51898;49.864;8.550;2022-12-18T07:28:32;-10.30;99.90
10089;DHT22;51898;49.864;8.550;2022-12-18T07:31:34;-10.30;99.90
10089;DHT22;51898;49.864;8.550;2022-12-18T07:34:36;-10.40;99.90
10089;DHT22;51898;49.864;8.550;2022-12-18T07:37:38;-10.30;99.90
10089;DHT22;51898;49.864;8.550;2022-12-18T07:40:40;-10.30;99.90
10089;DHT22;51898;49.864;8.550;2022-12-18T07:43:42;-10.30;99.90
10089;DHT22;51898;49.864;8.550;2022-12-18T07:46:44;-10.30;99.90
10089;DHT22;51898;49.864;8.550;2022-12-18T07:49:46;-10.30;99.90
10089;DHT22;51898;49.864;8.550;2022-12-18T07:52:47;-10.20;99.90
10089;DHT22;51898;49.864;8.550;2022-12-18T07:55:49;-10.10;99.90
10089;DHT22;51898;49.864;8.550;2022-12-18T07:59:15;-10.10;99.90
10089;DHT22;51898;49.864;8.550;2022-12-18T08:02:17;-10.00;99.90
10089;DHT22;51898;49.864;8.550;2022-12-18T08:05:19;-9.80;99.90
10089;DHT22;51898;49.864;8.550;2022-12-18T08:08:22;-9.70;99.90
10089;DHT22;51898;49.864;8.550;2022-12-18T08:11:25;-9.60;99.90
10089;DHT22;51898;49.864;8.550;2022-12-18T08:14:27;-9.50;99.90
10089;DHT22;51898;49.864;8.550;2022-12-18T08:17:28;-9.40;99.90
10089;DHT22;51898;49.864;8.550;2022-12-18T08:20:30;-9.30;99.90
10089;DHT22;51898;49.864;8.550;2022-12-18T08:23:32;-9.30;99.90
10089;DHT22;51898;49.864;8.550;2022-12-18T08:26:43;-9.20;99.90
10089;DHT22;51898;49.864;8.550;2022-12-18T08:30:05;-9.10;99.90
10089;DHT22;51898;49.864;8.550;2022-12-18T08:33:07;-9.00;99.90
10089;DHT22;51898;49.864;8.550;2022-12-18T08:36:10;-8.90;99.90
10089;DHT22;51898;49.864;8.550;2022-12-18T08:39:12;-8.90;99.90
10089;DHT22;51898;49.864;8.550;2022-12-18T08:42:13;-8.80;99.90
10089;DHT22;51898;49.864;8.550;2022-12-18T08:45:34;-8.90;99.90
10089;DHT22;51898;49.864;8.550;2022-12-18T08:48:35;-8.70;99.90
10089;DHT22;51898;49.864;8.550;2022-12-18T08:51:37;-8.80;99.90
10089;DHT22;51898;49.864;8.550;2022-12-18T08:54:39;-8.60;99.90
10089;DHT22;51898;49.864;8.550;2022-12-18T08:57:41;-8.50;99.90
10089;DHT22;51898;49.864;8.550;2022-12-18T09:00:42;-8.30;99.90
10089;DHT22;51898;49.864;8.550;2022-12-18T09:03:44;-8.20;99.90
10089;DHT22;51898;49.864;8.550;2022-12-18T09:06:46;-8.00;99.90
10089;DHT22;51898;49.864;8.550;2022-12-18T09:09:48;-7.90;99.90
10089;DHT22;51898;49.864;8.550;2022-12-18T09:12:49;-8.10;99.90
10089;DHT22;51898;49.864;8.550;2022-12-18T09:15:53;-8.10;99.90
10089;DHT22;51898;49.864;8.550;2022-12-18T09:18:55;-7.90;99.90
10089;DHT22;51898;49.864;8.550;2022-12-18T09:22:00;-7.60;99.90
10089;DHT22;51898;49.864;8.550;2022-12-18T09:25:02;-7.70;99.90
10089;DHT22;51898;49.864;8.550;2022-12-18T09:28:15;-7.60;99.90
10089;DHT22;51898;49.864;8.550;2022-12-18T09:31:18;-7.40;99.90
10089;DHT22;51898;49.864;8.550;2022-12-18T09:34:20;-7.50;99.90
10089;DHT22;51898;49.864;8.550;2022-12-18T09:37:25;-7.60;99.90
10089;DHT22;51898;49.864;8.550;2022-12-18T09:40:32;-7.60;99.90
10089;DHT22;51898;49.864;8.550;2022-12-18T09:43:41;-7.80;99.90
10089;DHT22;51898;49.864;8.550;2022-12-18T09:50:28;-7.50;99.90
10089;DHT22;51898;49.864;8.550;2022-12-18T09:53:34;-7.40;99.90
10089;DHT22;51898;49.864;8.550;2022-12-18T09:56:42;-7.30;99.90
10089;DHT22;51898;49.864;8.550;2022-12-18T09:59:50;-7.40;99.90
10089;DHT22;51898;49.864;8.550;2022-12-18T10:03:01;-7.40;99.90
10089;DHT22;51898;49.864;8.550;2022-12-18T10:09:34;-7.30;99.90
10089;DHT22;51898;49.864;8.550;2022-12-18T10:12:46;-7.20;99.90
10089;DHT22;51898;49.864;8.550;2022-12-18T10:16:03;-7.10;99.90
10089;DHT22;51898;49.864;8.550;2022-12-18T10:19:22;-7.10;99.90
10089;DHT22;51898;49.864;8.550;2022-12-18T10:26:02;-6.80;99.90
10089;DHT22;51898;49.864;8.550;2022-12-18T10:29:11;-6.50;99.90
10089;DHT22;51898;49.864;8.550;2022-12-18T10:32:19;-6.30;99.90
10089;DHT22;51898;49.864;8.550;2022-12-18T10:35:26;-6.10;99.90
10089;DHT22;51898;49.864;8.550;2022-12-18T10:38:30;-6.00;99.90
10089;DHT22;51898;49.864;8.550;2022-12-18T10:41:33;-5.70;99.90
10089;DHT22;51898;49.864;8.550;2022-12-18T10:44:34;-5.60;99.90
10089;DHT22;51898;49.864;8.550;2022-12-18T10:47:36;-5.40;99.90
10089;DHT22;51898;49.864;8.550;2022-12-18T10:50:47;-5.30;99.90
10089;DHT22;51898;49.864;8.550;2022-12-18T10:54:35;-5.10;99.90
10089;DHT22;51898;49.864;8.550;2022-12-18T10:57:39;-4.80;99.90
10089;DHT22;51898;49.864;8.550;2022-12-18T11:00:42;-4.50;99.90
10089;DHT22;51898;49.864;8.550;2022-12-18T11:03:46;-4.30;99.90
10089;DHT22;51898;49.864;8.550;2022-12-18T11:07:03;-4.10;99.90
10089;DHT22;51898;49.864;8.550;2022-12-18T11:10:15;-4.10;99.90
10089;DHT22;51898;49.864;8.550;2022-12-18T11:13:19;-4.10;99.90
10089;DHT22;51898;49.864;8.550;2022-12-18T11:16:22;-3.80;99.90
10089;DHT22;51898;49.864;8.550;2022-12-18T11:19:41;-3.80;99.90
10089;DHT22;51898;49.864;8.550;2022-12-18T11:22:42;-3.60;99.90
10089;DHT22;51898;49.864;8.550;2022-12-18T11:25:59;-3.50;99.90
10089;DHT22;51898;49.864;8.550;2022-12-18T11:29:12;-3.50;99.90
10089;DHT22;51898;49.864;8.550;2022-12-18T11:32:32;-3.60;99.90
10089;DHT22;51898;49.864;8.550;2022-12-18T11:36:00;-3.30;99.90
10089;DHT22;51898;49.864;8.550;2022-12-18T11:42:41;-3.30;99.90
10089;DHT22;51898;49.864;8.550;2022-12-18T11:45:58;-3.30;99.90
10089;DHT22;51898;49.864;8.550;2022-12-18T11:49:11;-3.30;99.90
10089;DHT22;51898;49.864;8.550;2022-12-18T11:52:26;-3.40;99.90
10089;DHT22;51898;49.864;8.550;2022-12-18T12:05:34;-3.30;99.90
10089;DHT22;51898;49.864;8.550;2022-12-18T12:19:11;-3.00;99.90
10089;DHT22;51898;49.864;8.550;2022-12-18T12:22:42;-3.10;99.90
10089;DHT22;51898;49.864;8.550;2022-12-18T12:25:52;-3.20;99.90
10089;DHT22;51898;49.864;8.550;2022-12-18T12:35:58;-3.20;99.90
10089;DHT22;51898;49.864;8.550;2022-12-18T12:39:07;-3.10;99.90
10089;DHT22;51898;49.864;8.550;2022-12-18T12:42:23;-3.30;99.90
10089;DHT22;51898;49.864;8.550;2022-12-18T12:48:59;-3.30;99.90
10089;DHT22;51898;49.864;8.550;2022-12-18T12:52:10;-3.40;99.90
10089;DHT22;51898;49.864;8.550;2022-12-18T12:55:28;-3.40;99.90
10089;DHT22;51898;49.864;8.550;2022-12-18T13:02:20;-3.20;99.90
10089;DHT22;51898;49.864;8.550;2022-12-18T13:05:40;-3.00;99.90
10089;DHT22;51898;49.864;8.550;2022-12-18T13:08:54;-3.00;99.90
10089;DHT22;51898;49.864;8.550;2022-12-18T13:12:03;-3.20;99.90
10089;DHT22;51898;49.864;8.550;2022-12-18T13:15:34;-3.40;99.90
10089;DHT22;51898;49.864;8.550;2022-12-18T13:18:51;-3.50;99.90
10089;DHT22;51898;49.864;8.550;2022-12-18T13:21:56;-3.50;99.90
10089;DHT22;51898;49.864;8.550;2022-12-18T13:24:59;-3.60;99.90
10089;DHT22;51898;49.864;8.550;2022-12-18T13:34:43;-3.10;99.90
10089;DHT22;51898;49.864;8.550;2022-12-18T13:37:52;-3.10;99.90
10089;DHT22;51898;49.864;8.550;2022-12-18T13:40:56;-2.90;99.90
10089;DHT22;51898;49.864;8.550;2022-12-18T13:47:31;-2.60;99.90
10089;DHT22;51898;49.864;8.550;2022-12-18T13:50:35;-2.40;99.90
10089;DHT22;51898;49.864;8.550;2022-12-18T13:53:43;-2.40;99.90
10089;DHT22;51898;49.864;8.550;2022-12-18T13:56:47;-2.40;99.90
10089;DHT22;51898;49.864;8.550;2022-12-18T13:59:49;-2.30;99.90
10089;DHT22;51898;49.864;8.550;2022-12-18T14:02:55;-2.40;99.90
10089;DHT22;51898;49.864;8.550;2022-12-18T14:06:05;-2.60;99.90
10089;DHT22;51898;49.864;8.550;2022-12-18T14:09:14;-2.70;99.90
10089;DHT22;51898;49.864;8.550;2022-12-18T14:12:25;-2.80;99.90
10089;DHT22;51898;49.864;8.550;2022-12-18T14:15:49;-2.70;99.90
10089;DHT22;51898;49.864;8.550;2022-12-18T14:18:56;-2.60;99.90
10089;DHT22;51898;49.864;8.550;2022-12-18T14:22:04;-2.60;99.90
10089;DHT22;51898;49.864;8.550;2022-12-18T14:28:14;-2.60;99.90
10089;DHT22;51898;49.864;8.550;2022-12-18T14:31:25;-2.50;99.90
10089;DHT22;51898;49.864;8.550;2022-12-18T14:34:27;-2.60;99.90
10089;DHT22;51898;49.864;8.550;2022-12-18T14:37:28;-2.70;99.90
10089;DHT22;51898;49.864;8.550;2022-12-18T14:40:30;-2.60;99.90
10089;DHT22;51898;49.864;8.550;2022-12-18T14:43:34;-2.70;99.90
10089;DHT22;51898;49.864;8.550;2022-12-18T14:46:41;-2.80;99.90
10089;DHT22;51898;49.864;8.550;2022-12-18T14:49:44;-2.80;99.90
10089;DHT22;51898;49.864;8.550;2022-12-18T14:52:46;-2.80;99.90
10089;DHT22;51898;49.864;8.550;2022-12-18T14:55:48;-2.80;99.90
10089;DHT22;51898;49.864;8.550;2022-12-18T15:02:19;-2.90;99.90
10089;DHT22;51898;49.864;8.550;2022-12-18T15:05:28;-2.90;99.90
10089;DHT22;51898;49.864;8.550;2022-12-18T15:08:35;-3.00;99.90
10089;DHT22;51898;49.864;8.550;2022-12-18T15:14:42;-2.90;99.90
10089;DHT22;51898;49.864;8.550;2022-12-18T15:17:43;-3.00;99.90
10089;DHT22;51898;49.864;8.550;2022-12-18T15:20:49;-3.00;99.90
10089;DHT22;51898;49.864;8.550;2022-12-18T15:23:52;-3.00;99.90
10089;DHT22;51898;49.864;8.550;2022-12-18T15:26:54;-3.10;99.90
10089;DHT22;51898;49.864;8.550;2022-12-18T15:33:25;-3.10;99.90
10089;DHT22;51898;49.864;8.550;2022-12-18T15:36:27;-3.10;99.90
10089;DHT22;51898;49.864;8.550;2022-12-18T15:39:29;-3.00;99.90
10089;DHT22;51898;49.864;8.550;2022-12-18T15:42:30;-3.10;99.90
10089;DHT22;51898;49.864;8.550;2022-12-18T15:45:51;-3.10;99.90
10089;DHT22;51898;49.864;8.550;2022-12-18T15:48:57;-3.00;99.90
10089;DHT22;51898;49.864;8.550;2022-12-18T15:52:05;-3.00;99.90
10089;DHT22;51898;49.864;8.550;2022-12-18T15:55:19;-3.10;99.90
10089;DHT22;51898;49.864;8.550;2022-12-18T15:58:40;-3.30;99.90
10089;DHT22;51898;49.864;8.550;2022-12-18T16:01:45;-3.40;99.90
10089;DHT22;51898;49.864;8.550;2022-12-18T16:04:47;-3.40;99.90
10089;DHT22;51898;49.864;8.550;2022-12-18T16:07:49;-3.50;99.90
10089;DHT22;51898;49.864;8.550;2022-12-18T16:10:50;-3.60;99.90
10089;DHT22;51898;49.864;8.550;2022-12-18T16:13:52;-3.60;99.90
10089;DHT22;51898;49.864;8.550;2022-12-18T16:17:00;-3.70;99.90
10089;DHT22;51898;49.864;8.550;2022-12-18T16:20:02;-3.70;99.90
10089;DHT22;51898;49.864;8.550;2022-12-18T16:23:04;-3.70;99.90
10089;DHT22;51898;49.864;8.550;2022-12-18T16:26:05;-3.80;99.90
10089;DHT22;51898;49.864;8.550;2022-12-18T16:29:07;-3.80;99.90
10089;DHT22;51898;49.864;8.550;2022-12-18T16:32:16;-3.80;99.90
10089;DHT22;51898;49.864;8.550;2022-12-18T16:35:18;-3.80;99.90
10089;DHT22;51898;49.864;8.550;2022-12-18T16:38:19;-3.90;99.90
10089;DHT22;51898;49.864;8.550;2022-12-18T16:41:21;-3.80;99.90
10089;DHT22;51898;49.864;8.550;2022-12-18T16:44:33;-3.90;99.90
10089;DHT22;51898;49.864;8.550;2022-12-18T16:47:36;-3.90;99.90
10089;DHT22;51898;49.864;8.550;2022-12-18T16:50:38;-3.90;99.90
10089;DHT22;51898;49.864;8.550;2022-12-18T16:53:40;-3.80;99.90
10089;DHT22;51898;49.864;8.550;2022-12-18T16:56:43;-3.70;99.90
10089;DHT22;51898;49.864;8.550;2022-12-18T16:59:45;-3.70;99.90
10089;DHT22;51898;49.864;8.550;2022-12-18T17:02:47;-3.60;99.90
10089;DHT22;51898;49.864;8.550;2022-12-18T17:05:49;-3.60;99.90
10089;DHT22;51898;49.864;8.550;2022-12-18T17:08:57;-3.60;99.90
10089;DHT22;51898;49.864;8.550;2022-12-18T17:11:59;-3.60;99.90
10089;DHT22;51898;49.864;8.550;2022-12-18T17:15:05;-3.60;99.90
10089;DHT22;51898;49.864;8.550;2022-12-18T17:18:07;-3.50;99.90
10089;DHT22;51898;49.864;8.550;2022-12-18T17:21:10;-3.60;99.90
10089;DHT22;51898;49.864;8.550;2022-12-18T17:24:12;-3.50;99.90
10089;DHT22;51898;49.864;8.550;2022-12-18T17:27:14;-3.50;99.90
10089;DHT22;51898;49.864;8.550;2022-12-18T17:30:16;-3.50;99.90
10089;DHT22;51898;49.864;8.550;2022-12-18T17:33:18;-3.50;99.90
10089;DHT22;51898;49.864;8.550;2022-12-18T17:36:20;-3.60;99.90
10089;DHT22;51898;49.864;8.550;2022-12-18T17:39:24;-3.70;99.90
10089;DHT22;51898;49.864;8.550;2022-12-18T17:42:26;-3.70;99.90
10089;DHT22;51898;49.864;8.550;2022-12-18T17:45:27;-3.60;99.90
10089;DHT22;51898;49.864;8.550;2022-12-18T17:48:29;-3.50;99.90
10089;DHT22;51898;49.864;8.550;2022-12-18T17:51:31;-3.40;99.90
10089;DHT22;51898;49.864;8.550;2022-12-18T17:54:33;-3.30;99.90
10089;DHT22;51898;49.864;8.550;2022-12-18T17:57:35;-3.40;99.90
10089;DHT22;51898;49.864;8.550;2022-12-18T18:00:38;-3.50;99.90
10089;DHT22;51898;49.864;8.550;2022-12-18T18:03:40;-3.50;99.90
10089;DHT22;51898;49.864;8.550;2022-12-18T18:06:43;-3.50;99.90
10089;DHT22;51898;49.864;8.550;2022-12-18T18:09:44;-3.50;99.90
10089;DHT22;51898;49.864;8.550;2022-12-18T18:12:46;-3.70;99.90
10089;DHT22;51898;49.864;8.550;2022-12-18T18:16:08;-3.70;99.90
10089;DHT22;51898;49.864;8.550;2022-12-18T18:19:19;-3.60;99.90
10089;DHT22;51898;49.864;8.550;2022-12-18T18:22:21;-3.60;99.90
10089;DHT22;51898;49.864;8.550;2022-12-18T18:25:24;-3.60;99.90
10089;DHT22;51898;49.864;8.550;2022-12-18T18:28:27;-3.60;99.90
10089;DHT22;51898;49.864;8.550;2022-12-18T18:31:30;-3.60;99.90
10089;DHT22;51898;49.864;8.550;2022-12-18T18:34:32;-3.50;99.90
10089;DHT22;51898;49.864;8.550;2022-12-18T18:37:33;-3.50;99.90
10089;DHT22;51898;49.864;8.550;2022-12-18T18:40:35;-3.50;99.90
10089;DHT22;51898;49.864;8.550;2022-12-18T18:43:37;-3.50;99.90
10089;DHT22;51898;49.864;8.550;2022-12-18T18:46:39;-3.50;99.90
10089;DHT22;51898;49.864;8.550;2022-12-18T18:49:40;-3.60;99.90
10089;DHT22;51898;49.864;8.550;2022-12-18T18:52:42;-3.80;99.90
10089;DHT22;51898;49.864;8.550;2022-12-18T18:55:45;-3.70;99.90
10089;DHT22;51898;49.864;8.550;2022-12-18T18:59:04;-3.60;99.90
10089;DHT22;51898;49.864;8.550;2022-12-18T19:02:10;-3.70;99.90
10089;DHT22;51898;49.864;8.550;2022-12-18T19:05:12;-3.60;99.90
10089;DHT22;51898;49.864;8.550;2022-12-18T19:08:14;-3.50;99.90
10089;DHT22;51898;49.864;8.550;2022-12-18T19:11:16;-3.50;99.90
10089;DHT22;51898;49.864;8.550;2022-12-18T19:14:37;-3.60;99.90
10089;DHT22;51898;49.864;8.550;2022-12-18T19:17:38;-3.50;99.90
10089;DHT22;51898;49.864;8.550;2022-12-18T19:20:40;-3.50;99.90
10089;DHT22;51898;49.864;8.550;2022-12-18T19:23:43;-3.50;99.90
10089;DHT22;51898;49.864;8.550;2022-12-18T19:26:45;-3.50;99.90
10089;DHT22;51898;49.864;8.550;2022-12-18T19:29:48;-3.50;99.90
10089;DHT22;51898;49.864;8.550;2022-12-18T19:32:49;-3.40;99.90
10089;DHT22;51898;49.864;8.550;2022-12-18T19:35:51;-3.30;99.90
10089;DHT22;51898;49.864;8.550;2022-12-18T19:38:56;-3.30;99.90
10089;DHT22;51898;49.864;8.550;2022-12-18T19:41:58;-3.20;99.90
10089;DHT22;51898;49.864;8.550;2022-12-18T19:44:59;-3.30;99.90
10089;DHT22;51898;49.864;8.550;2022-12-18T19:48:01;-3.20;99.90
10089;DHT22;51898;49.864;8.550;2022-12-18T19:51:19;-3.30;99.90
10089;DHT22;51898;49.864;8.550;2022-12-18T19:54:21;-3.30;99.90
10089;DHT22;51898;49.864;8.550;2022-12-18T19:57:23;-3.20;99.90
10089;DHT22;51898;49.864;8.550;2022-12-18T20:00:24;-3.30;99.90
10089;DHT22;51898;49.864;8.550;2022-12-18T20:03:26;-3.30;99.90
10089;DHT22;51898;49.864;8.550;2022-12-18T20:06:48;-3.20;99.90
10089;DHT22;51898;49.864;8.550;2022-12-18T20:09:50;-3.20;99.90
10089;DHT22;51898;49.864;8.550;2022-12-18T20:13:04;-3.20;99.90
10089;DHT22;51898;49.864;8.550;2022-12-18T20:16:07;-3.20;99.90
10089;DHT22;51898;49.864;8.550;2022-12-18T20:19:10;-3.20;99.90
10089;DHT22;51898;49.864;8.550;2022-12-18T20:22:12;-3.30;99.90
10089;DHT22;51898;49.864;8.550;2022-12-18T20:25:14;-3.40;99.90
10089;DHT22;51898;49.864;8.550;2022-12-18T20:28:16;-3.40;99.90
10089;DHT22;51898;49.864;8.550;2022-12-18T20:31:18;-3.40;99.90
10089;DHT22;51898;49.864;8.550;2022-12-18T20:34:20;-3.40;99.90
10089;DHT22;51898;49.864;8.550;2022-12-18T20:37:23;-3.40;99.90
10089;DHT22;51898;49.864;8.550;2022-12-18T20:40:25;-3.50;99.90
10089;DHT22;51898;49.864;8.550;2022-12-18T20:43:29;-3.60;99.90
10089;DHT22;51898;49.864;8.550;2022-12-18T20:46:31;-3.60;99.90
10089;DHT22;51898;49.864;8.550;2022-12-18T20:49:33;-3.60;99.90
10089;DHT22;51898;49.864;8.550;2022-12-18T20:52:34;-3.50;99.90
10089;DHT22;51898;49.864;8.550;2022-12-18T20:55:40;-3.30;99.90
10089;DHT22;51898;49.864;8.550;2022-12-18T20:58:43;-3.20;99.90